createdAt,value
2023-02-13T00:00:17.797Z,97.1
2023-02-13T00:01:58.137Z,97.19
2023-02-13T00:03:38.490Z,97.17
2023-02-13T00:05:18.764Z,97.17
2023-02-13T00:06:59.175Z,97.15
2023-02-13T00:08:39.350Z,97.12
2023-02-13T00:10:19.637Z,97.21
2023-02-13T00:11:59.950Z,97.37
2023-02-13T00:13:40.321Z,97.49
2023-02-13T00:15:20.706Z,97.54
2023-02-13T00:17:01.190Z,97.58
2023-02-13T00:18:41.712Z,97.57
2023-02-13T00:20:22.099Z,97.64
2023-02-13T00:23:42.633Z,97.69
2023-02-13T00:25:22.952Z,97.76
2023-02-13T00:27:03.263Z,97.83
2023-02-13T00:28:43.624Z,97.93
2023-02-13T00:30:23.837Z,98.02
2023-02-13T00:32:04.263Z,98.06
2023-02-13T00:33:44.412Z,98.11
2023-02-13T00:35:24.732Z,98.12
2023-02-13T00:37:05.068Z,98.07
2023-02-13T00:38:45.325Z,98.15
2023-02-13T00:40:25.713Z,98.17
2023-02-13T00:42:05.954Z,98.16
2023-02-13T00:43:46.261Z,98.21
2023-02-13T00:45:26.560Z,98.21
2023-02-13T00:47:06.831Z,98.2
2023-02-13T00:48:47.175Z,98.24
2023-02-13T00:50:27.425Z,98.23
2023-02-13T00:52:07.727Z,98.24
2023-02-13T00:53:48.045Z,98.3
2023-02-13T00:55:28.320Z,98.36
2023-02-13T00:57:08.639Z,98.37
2023-02-13T00:58:48.910Z,98.45
2023-02-13T01:00:29.219Z,98.54
2023-02-13T01:02:09.532Z,98.63
2023-02-13T01:03:49.877Z,98.67
2023-02-13T01:05:30.195Z,98.71
2023-02-13T01:07:10.541Z,98.79
2023-02-13T01:08:50.828Z,98.84
2023-02-13T01:10:31.144Z,98.82
2023-02-13T01:12:11.482Z,98.86
2023-02-13T01:13:51.751Z,98.88
2023-02-13T01:15:32.243Z,98.9
2023-02-13T01:17:12.678Z,98.92
2023-02-13T01:18:53.057Z,98.96
2023-02-13T01:20:33.468Z,98.97
2023-02-13T01:22:13.955Z,98.99
2023-02-13T01:23:54.416Z,99.03
2023-02-13T01:25:34.741Z,99.01
2023-02-13T01:27:17.105Z,99.11
2023-02-13T01:28:55.428Z,99.11
2023-02-13T01:30:35.708Z,99.13
2023-02-13T01:32:16.147Z,99.16
2023-02-13T01:33:56.494Z,99.18
2023-02-13T01:35:36.910Z,99.15
2023-02-13T01:37:17.251Z,99.14
2023-02-13T01:38:57.557Z,99.22
2023-02-13T01:40:37.967Z,99.2
2023-02-13T01:42:18.410Z,99.24
2023-02-13T01:43:58.885Z,99.23
2023-02-13T01:45:39.309Z,99.24
2023-02-13T01:47:19.675Z,99.23
2023-02-13T01:49:00.111Z,99.19
2023-02-13T01:50:40.432Z,99.22
2023-02-13T01:52:20.894Z,99.23
2023-02-13T01:54:01.276Z,99.19
2023-02-13T01:55:41.642Z,99.18
2023-02-13T01:57:22.055Z,99.19
2023-02-13T01:59:02.365Z,99.11
2023-02-13T02:00:42.631Z,99.15
2023-02-13T02:02:23.115Z,99.06
2023-02-13T02:04:03.232Z,99.08
2023-02-13T02:05:43.556Z,99.03
2023-02-13T02:07:23.831Z,99.06
2023-02-13T02:09:04.130Z,99.06
2023-02-13T02:10:44.532Z,99.06
2023-02-13T02:12:25.040Z,99.11
2023-02-13T02:14:05.401Z,99.08
2023-02-13T02:15:45.977Z,99.11
2023-02-13T02:17:26.414Z,99.11
2023-02-13T02:19:06.721Z,99.08
2023-02-13T02:20:47.073Z,99.1
2023-02-13T02:22:27.354Z,99.14
2023-02-13T02:24:07.654Z,99.11
2023-02-13T02:25:47.978Z,99.16
2023-02-13T02:27:28.416Z,99.12
2023-02-13T02:29:08.826Z,99.15
2023-02-13T02:30:49.259Z,99.19
2023-02-13T02:32:29.428Z,99.15
2023-02-13T02:34:09.774Z,99.2
2023-02-13T02:35:50.072Z,99.21
2023-02-13T02:37:30.348Z,99.16
2023-02-13T02:39:10.636Z,99.16
2023-02-13T02:40:51.068Z,99.16
2023-02-13T02:42:31.455Z,99.14
2023-02-13T02:44:11.901Z,99.15
2023-02-13T02:45:52.270Z,99.16
2023-02-13T02:47:32.715Z,99.14
2023-02-13T02:49:13.139Z,99.11
2023-02-13T02:50:53.664Z,98.97
2023-02-13T02:52:34.003Z,98.81
2023-02-13T02:54:14.473Z,98.62
2023-02-13T02:55:54.646Z,98.58
2023-02-13T02:57:35.025Z,98.57
2023-02-13T02:59:15.432Z,98.56
2023-02-13T03:00:56.279Z,98.61
2023-02-13T03:02:36.199Z,98.61
2023-02-13T03:05:57.203Z,98.6
2023-02-13T03:07:37.518Z,98.64
2023-02-13T03:09:17.873Z,98.65
2023-02-13T03:10:58.593Z,98.64
2023-02-13T03:12:38.455Z,98.68
2023-02-13T03:14:18.748Z,98.7
2023-02-13T03:15:59.072Z,98.72
2023-02-13T03:17:39.321Z,98.67
2023-02-13T03:19:19.623Z,98.7
2023-02-13T03:21:00.251Z,98.73
2023-02-13T03:22:40.213Z,98.73
2023-02-13T03:24:20.525Z,98.71
2023-02-13T03:26:00.838Z,98.68
2023-02-13T03:27:41.246Z,98.72
2023-02-13T03:29:21.670Z,98.71
2023-02-13T03:31:01.994Z,98.72
2023-02-13T03:32:42.237Z,98.69
2023-02-13T03:34:22.585Z,98.61
2023-02-13T03:36:02.864Z,98.56
2023-02-13T03:37:43.276Z,98.45
2023-02-13T03:39:23.524Z,98.39
2023-02-13T03:41:03.998Z,98.3
2023-02-13T03:42:44.373Z,98.2
2023-02-13T03:44:24.853Z,98.16
2023-02-13T03:46:05.544Z,98.15
2023-02-13T03:47:45.739Z,98.17
2023-02-13T03:49:26.288Z,98.22
2023-02-13T03:51:06.692Z,98.21
2023-02-13T03:52:46.994Z,98.24
2023-02-13T03:54:27.358Z,98.32
2023-02-13T03:56:07.654Z,98.24
2023-02-13T03:57:48.000Z,98.19
2023-02-13T03:59:28.423Z,98.11
2023-02-13T04:01:08.900Z,98.04
2023-02-13T04:02:49.311Z,97.88
2023-02-13T04:04:29.780Z,97.78
2023-02-13T04:06:10.153Z,97.71
2023-02-13T04:07:50.487Z,97.63
2023-02-13T04:09:30.781Z,97.55
2023-02-13T04:11:11.160Z,97.49
2023-02-13T04:12:51.551Z,97.51
2023-02-13T04:14:31.878Z,97.48
2023-02-13T04:16:12.220Z,97.43
2023-02-13T04:17:52.519Z,97.31
2023-02-13T04:19:32.824Z,97.31
2023-02-13T04:21:13.115Z,97.29
2023-02-13T04:22:53.417Z,97.22
2023-02-13T04:24:33.717Z,97.17
2023-02-13T04:26:14.292Z,96.99
2023-02-13T04:26:14.305Z,96.99
2023-02-13T04:26:14.331Z,96.99
2023-02-13T04:27:54.347Z,96.82
2023-02-13T04:29:34.762Z,96.69
2023-02-13T04:31:15.277Z,96.65
2023-02-13T04:32:55.558Z,96.67
2023-02-13T04:34:35.981Z,96.74
2023-02-13T04:36:16.445Z,96.75
2023-02-13T04:37:56.850Z,96.69
2023-02-13T04:39:37.287Z,96.68
2023-02-13T04:41:17.680Z,96.67
2023-02-13T04:42:57.992Z,96.56
2023-02-13T04:44:38.274Z,96.43
2023-02-13T04:46:18.672Z,96.43
2023-02-13T04:47:58.880Z,96.53
2023-02-13T04:49:39.198Z,96.54
2023-02-13T04:51:19.571Z,96.57
2023-02-13T04:53:00.056Z,96.56
2023-02-13T04:54:40.437Z,96.61
2023-02-13T04:56:20.903Z,96.64
2023-02-13T04:58:01.357Z,96.69
2023-02-13T04:59:41.810Z,96.73
2023-02-13T05:01:22.226Z,96.81
2023-02-13T05:03:02.488Z,96.82
2023-02-13T05:04:42.893Z,96.79
2023-02-13T05:06:23.200Z,96.76
2023-02-13T05:08:03.463Z,96.62
2023-02-13T05:09:43.804Z,96.49
2023-02-13T05:11:24.124Z,96.51
2023-02-13T05:13:04.412Z,96.51
2023-02-13T05:14:44.773Z,96.59
2023-02-13T05:16:25.175Z,96.56
2023-02-13T05:18:05.613Z,96.63
2023-02-13T05:19:46.058Z,96.68
2023-02-13T05:21:26.507Z,96.72
2023-02-13T05:23:06.936Z,96.7
2023-02-13T05:24:47.488Z,96.6
2023-02-13T05:26:27.833Z,96.55
2023-02-13T05:28:08.333Z,96.5
2023-02-13T05:29:48.819Z,96.44
2023-02-13T05:31:29.494Z,96.32
2023-02-13T05:33:09.778Z,96.28
2023-02-13T05:34:50.205Z,96.28
2023-02-13T05:36:30.511Z,96.23
2023-02-13T05:38:10.812Z,96.21
2023-02-13T05:39:51.143Z,96.24
2023-02-13T05:41:31.410Z,96.28
2023-02-13T05:43:11.794Z,96.32
2023-02-13T05:44:52.150Z,96.35
2023-02-13T05:46:32.561Z,96.37
2023-02-13T05:48:12.920Z,96.45
2023-02-13T05:49:53.387Z,96.48
2023-02-13T05:51:33.865Z,96.4
2023-02-13T05:53:14.366Z,96.4
2023-02-13T05:54:54.855Z,96.42
2023-02-13T05:56:35.237Z,96.46
2023-02-13T05:58:15.530Z,96.52
2023-02-13T05:59:55.816Z,96.52
2023-02-13T06:01:36.103Z,96.55
2023-02-13T06:03:16.404Z,96.59
2023-02-13T06:04:56.701Z,96.59
2023-02-13T06:06:36.983Z,96.34
2023-02-13T06:08:17.324Z,96.15
2023-02-13T06:09:57.655Z,96.04
2023-02-13T06:11:37.937Z,96.07
2023-02-13T06:13:18.495Z,95.84
2023-02-13T06:14:58.906Z,95.43
2023-02-13T06:16:39.409Z,94.83
2023-02-13T06:18:19.823Z,94.49
2023-02-13T06:20:00.257Z,94.27
2023-02-13T06:21:40.641Z,94.05
2023-02-13T06:23:20.894Z,94.01
2023-02-13T06:25:01.247Z,94.07
2023-02-13T06:26:41.493Z,93.98
2023-02-13T06:28:21.914Z,93.96
2023-02-13T06:30:02.159Z,94.13
2023-02-13T06:31:42.679Z,94.11
2023-02-13T06:33:22.936Z,94.17
2023-02-13T06:35:05.510Z,94.22
2023-02-13T06:36:43.898Z,94.21
2023-02-13T06:38:24.396Z,94.33
2023-02-13T06:40:04.805Z,94.29
2023-02-13T06:41:45.211Z,94.24
2023-02-13T06:43:25.601Z,94.2
2023-02-13T06:45:06.029Z,94.3
2023-02-13T06:46:46.560Z,94.3
2023-02-13T06:48:26.941Z,94.19
2023-02-13T06:50:07.362Z,93.9
2023-02-13T06:51:47.834Z,93.89
2023-02-13T06:53:28.331Z,93.82
2023-02-13T06:55:08.712Z,93.74
2023-02-13T06:56:49.123Z,93.55
2023-02-13T06:58:29.538Z,93.7
2023-02-13T07:00:10.037Z,93.52
2023-02-13T07:01:50.494Z,93.59
2023-02-13T07:03:31.113Z,93.68
2023-02-13T07:05:11.540Z,93.79
2023-02-13T07:06:51.996Z,93.86
2023-02-13T07:08:32.298Z,93.75
2023-02-13T07:10:12.680Z,93.76
2023-02-13T07:11:53.115Z,93.8
2023-02-13T07:13:33.591Z,93.69
2023-02-13T07:15:13.855Z,93.55
2023-02-13T07:16:54.141Z,93.58
2023-02-13T07:18:34.437Z,93.49
2023-02-13T07:20:14.734Z,93.45
2023-02-13T07:21:55.285Z,93.61
2023-02-13T07:23:35.747Z,93.69
2023-02-13T07:25:16.185Z,93.78
2023-02-13T07:26:56.701Z,93.64
2023-02-13T07:28:37.264Z,93.58
2023-02-13T07:30:17.704Z,93.5
2023-02-13T07:31:58.257Z,93.46
2023-02-13T07:33:38.700Z,93.47
2023-02-13T07:35:18.999Z,93.44
2023-02-13T07:36:59.339Z,93.62
2023-02-13T07:38:47.089Z,93.6
2023-02-13T07:40:27.535Z,93.56
2023-02-13T07:42:08.028Z,93.35
2023-02-13T07:43:48.527Z,93.31
2023-02-13T07:45:28.852Z,93.18
2023-02-13T07:47:09.380Z,93.08
2023-02-13T07:48:49.736Z,93.13
2023-02-13T07:50:30.136Z,93.19
2023-02-13T07:52:10.629Z,93.09
2023-02-13T07:53:51.216Z,92.91
2023-02-13T07:55:31.638Z,92.93
2023-02-13T07:57:12.163Z,92.78
2023-02-13T07:58:52.689Z,92.63
2023-02-13T08:00:33.140Z,92.6
2023-02-13T08:02:13.629Z,92.68
2023-02-13T08:03:54.169Z,92.61
2023-02-13T08:05:34.829Z,92.56
2023-02-13T08:07:15.367Z,92.67
2023-02-13T08:08:55.866Z,92.6
2023-02-13T08:10:36.347Z,92.68
2023-02-13T08:12:16.849Z,92.57
2023-02-13T08:13:57.341Z,92.68
2023-02-13T08:15:37.902Z,92.48
2023-02-13T08:17:18.330Z,92.47
2023-02-13T08:18:58.805Z,92.35
2023-02-13T08:20:39.465Z,92.05
2023-02-13T08:22:19.497Z,92
2023-02-13T08:23:59.744Z,92.36
2023-02-13T08:25:40.068Z,92.11
2023-02-13T08:27:20.363Z,91.98
2023-02-13T08:29:00.655Z,91.95
2023-02-13T08:30:40.984Z,92.16
2023-02-13T08:32:21.365Z,92.01
2023-02-13T08:34:01.781Z,92.04
2023-02-13T08:35:42.268Z,91.87
2023-02-13T08:37:22.716Z,91.59
2023-02-13T08:39:03.054Z,91.37
2023-02-13T08:40:43.429Z,91.06
2023-02-13T08:42:23.926Z,91.34
2023-02-13T08:44:04.450Z,91.33
2023-02-13T08:45:45.119Z,91.68
2023-02-13T08:47:25.515Z,91.99
2023-02-13T08:49:05.996Z,91.87
2023-02-13T08:50:46.488Z,91.66
2023-02-13T08:52:26.938Z,91.76
2023-02-13T08:54:07.427Z,91.15
2023-02-13T08:55:47.866Z,90.87
2023-02-13T08:57:28.253Z,91.36
2023-02-13T08:59:08.631Z,91.35
2023-02-13T09:00:49.076Z,90.46
2023-02-13T09:02:29.605Z,90.69
2023-02-13T09:04:09.947Z,90.61
2023-02-13T09:05:50.430Z,90.95
2023-02-13T09:07:30.779Z,90.9
2023-02-13T09:09:11.107Z,90.41
2023-02-13T09:10:51.477Z,89.9
2023-02-13T09:12:31.782Z,90.14
2023-02-13T09:14:12.322Z,89.85
2023-02-13T09:15:52.753Z,89.96
2023-02-13T09:17:33.223Z,89.61
2023-02-13T09:19:13.739Z,90.26
2023-02-13T09:20:54.290Z,90.37
2023-02-13T09:22:34.693Z,90.25
2023-02-13T09:24:15.251Z,90.41
2023-02-13T09:25:56.157Z,90.3
2023-02-13T09:27:36.311Z,89.95
2023-02-13T09:29:16.708Z,89.71
2023-02-13T09:30:57.320Z,89.38
2023-02-13T09:32:37.687Z,89.27
2023-02-13T09:34:18.165Z,89.32
2023-02-13T09:35:58.926Z,89.23
2023-02-13T09:37:39.025Z,89.59
2023-02-13T09:39:19.550Z,89.42
2023-02-13T09:41:00.051Z,88.99
2023-02-13T09:42:40.492Z,89.57
2023-02-13T09:44:21.020Z,89.01
2023-02-13T09:46:01.803Z,89.14
2023-02-13T09:47:41.941Z,88.89
2023-02-13T09:49:22.574Z,88.49
2023-02-13T09:51:02.874Z,88.84
2023-02-13T09:52:43.398Z,88.51
2023-02-13T09:54:23.833Z,87.82
2023-02-13T09:56:04.401Z,87.93
2023-02-13T09:57:44.806Z,88.04
2023-02-13T09:59:25.313Z,88.43
2023-02-13T10:01:05.897Z,88.73
2023-02-13T10:02:46.292Z,88.44
2023-02-13T10:04:26.776Z,87.86
2023-02-13T10:06:07.254Z,87.73
2023-02-13T10:07:47.728Z,87.93
2023-02-13T10:09:28.149Z,87.09
2023-02-13T10:11:08.714Z,86.97
2023-02-13T10:12:49.215Z,86.5
2023-02-13T10:14:32.339Z,87.33
2023-02-13T10:16:10.255Z,86.92
2023-02-13T10:17:50.716Z,86.72
2023-02-13T10:19:31.138Z,86.74
2023-02-13T10:21:11.723Z,87.04
2023-02-13T10:22:52.332Z,87.37
2023-02-13T10:24:32.758Z,87.05
2023-02-13T10:26:13.172Z,86.18
2023-02-13T10:27:53.677Z,86.28
2023-02-13T10:29:34.110Z,86.3
2023-02-13T10:31:14.862Z,86.46
2023-02-13T10:33:01.843Z,86.01
2023-02-13T10:34:42.272Z,85.93
2023-02-13T10:36:22.841Z,86
2023-02-13T10:38:03.206Z,86.05
2023-02-13T10:39:43.792Z,85.94
2023-02-13T10:41:24.248Z,85.98
2023-02-13T10:43:04.705Z,86.1
2023-02-13T10:44:45.172Z,86.13
2023-02-13T10:46:25.670Z,85.53
2023-02-13T10:48:05.963Z,85.4
2023-02-13T10:49:46.470Z,86.06
2023-02-13T10:51:26.985Z,85.53
2023-02-13T10:53:07.272Z,85.81
2023-02-13T10:54:47.607Z,85.74
2023-02-13T10:56:27.984Z,85.19
2023-02-13T10:58:08.369Z,85.47
2023-02-13T10:59:48.878Z,85.29
2023-02-13T11:01:29.382Z,85.27
2023-02-13T11:03:09.889Z,85.35
2023-02-13T11:04:50.351Z,84.71
2023-02-13T11:06:30.809Z,84.76
2023-02-13T11:08:11.270Z,84.76
2023-02-13T11:09:51.780Z,84.84
2023-02-13T11:11:32.213Z,84.66
2023-02-13T11:13:12.713Z,84.28
2023-02-13T11:14:53.175Z,84.03
2023-02-13T11:16:33.789Z,84.54
2023-02-13T11:18:14.199Z,84.21
2023-02-13T11:19:54.665Z,84.18
2023-02-13T11:21:35.109Z,84.24
2023-02-13T11:23:15.556Z,83.5
2023-02-13T11:24:56.077Z,83.54
2023-02-13T11:26:36.531Z,83.28
2023-02-13T11:28:17.037Z,83.71
2023-02-13T11:29:57.480Z,82.57
2023-02-13T11:31:38.043Z,82.75
2023-02-13T11:33:18.325Z,82.89
2023-02-13T11:34:58.761Z,83
2023-02-13T11:36:39.327Z,83.44
2023-02-13T11:38:19.816Z,83.68
2023-02-13T11:40:00.235Z,83.22
2023-02-13T11:41:40.622Z,82.33
2023-02-13T11:43:21.258Z,81.03
2023-02-13T11:45:01.681Z,81.19
2023-02-13T11:46:42.389Z,82.91
2023-02-13T11:48:22.636Z,82.37
2023-02-13T11:50:03.007Z,81.66
2023-02-13T11:51:43.438Z,81.76
2023-02-13T11:53:23.867Z,81.19
2023-02-13T11:55:05.485Z,81.29
2023-02-13T11:57:03.068Z,81.93
2023-02-13T11:58:25.467Z,81.7
2023-02-13T12:00:05.866Z,80.88
2023-02-13T12:01:46.379Z,80.26
2023-02-13T12:03:27.035Z,80.8
2023-02-13T12:05:07.457Z,80.69
2023-02-13T12:06:47.828Z,80.1
2023-02-13T12:08:28.358Z,80.03
2023-02-13T12:10:08.863Z,81.19
2023-02-13T12:11:49.337Z,81.19
2023-02-13T12:13:29.830Z,81.37
2023-02-13T12:15:10.364Z,79.77
2023-02-13T12:16:50.980Z,79.58
2023-02-13T12:18:31.349Z,79.69
2023-02-13T12:20:11.804Z,79.56
2023-02-13T12:21:51.960Z,79.54
2023-02-13T12:23:32.259Z,80.41
2023-02-13T12:25:12.659Z,79.56
2023-02-13T12:26:52.953Z,78.27
2023-02-13T12:28:33.347Z,77.29
2023-02-13T12:30:13.771Z,77.47
2023-02-13T12:31:54.035Z,79.51
2023-02-13T12:33:34.512Z,77.83
2023-02-13T12:35:14.985Z,78.18
2023-02-13T12:36:55.658Z,76.24
2023-02-13T12:38:36.116Z,76.46
2023-02-13T12:40:16.630Z,75.12
2023-02-13T12:41:57.220Z,74.63
2023-02-13T12:43:37.657Z,75.01
2023-02-13T12:45:18.206Z,74.35
2023-02-13T12:46:58.555Z,75.77
2023-02-13T12:48:39.043Z,74.7
2023-02-13T12:50:19.551Z,74.54
2023-02-13T12:51:59.994Z,75.21
2023-02-13T12:53:40.597Z,74.62
2023-02-13T12:55:21.021Z,73.31
2023-02-13T12:57:01.531Z,72.49
2023-02-13T12:58:41.955Z,74.62
2023-02-13T13:00:22.436Z,74.79
2023-02-13T13:02:02.962Z,75.49
2023-02-13T13:03:43.346Z,75.82
2023-02-13T13:05:23.823Z,74.82
2023-02-13T13:07:04.144Z,73.24
2023-02-13T13:08:44.661Z,72.79
2023-02-13T13:10:25.044Z,73.21
2023-02-13T13:12:05.522Z,71.26
2023-02-13T13:13:45.900Z,70.65
2023-02-13T13:15:26.421Z,73.28
2023-02-13T13:17:06.953Z,71.32
2023-02-13T13:18:47.410Z,71.49
2023-02-13T13:20:27.868Z,70.48
2023-02-13T13:22:08.349Z,67.6
2023-02-13T13:23:48.745Z,68.01
2023-02-13T13:25:29.412Z,67.3
2023-02-13T13:27:09.726Z,69.55
2023-02-13T13:28:50.119Z,69.44
2023-02-13T13:30:30.721Z,65.46
2023-02-13T13:32:11.116Z,64.68
2023-02-13T13:33:51.475Z,64.32
2023-02-13T13:35:31.948Z,67.37
2023-02-13T13:37:12.494Z,61.99
2023-02-13T13:38:53.029Z,62
2023-02-13T13:40:33.452Z,63.48
2023-02-13T13:42:13.925Z,67.34
2023-02-13T13:43:54.484Z,64.55
2023-02-13T13:45:35.014Z,58.57
2023-02-13T13:47:15.333Z,60.38
2023-02-13T13:48:55.763Z,61.88
2023-02-13T13:50:36.308Z,62.55
2023-02-13T13:52:16.718Z,61.14
2023-02-13T13:53:57.215Z,62.27
2023-02-13T13:55:37.730Z,61.03
2023-02-13T13:57:18.201Z,60.93
2023-02-13T13:58:58.684Z,63.09
2023-02-13T14:00:39.191Z,60.91
2023-02-13T14:02:19.742Z,61.08
2023-02-13T14:04:00.160Z,61.49
2023-02-13T14:05:40.651Z,61.43
2023-02-13T14:07:21.134Z,60.42
2023-02-13T14:09:01.506Z,60.92
2023-02-13T14:10:41.984Z,60.54
2023-02-13T14:12:22.468Z,60.52
2023-02-13T14:14:02.926Z,60.02
2023-02-13T14:15:43.454Z,60.31
2023-02-13T14:17:23.958Z,61.33
2023-02-13T14:19:04.475Z,59.38
2023-02-13T14:20:44.969Z,59.97
2023-02-13T14:22:25.437Z,59.17
2023-02-13T14:24:05.814Z,59.91
2023-02-13T14:25:47.041Z,60.8
2023-02-13T14:25:47.071Z,60.8
2023-02-13T14:25:47.085Z,60.8
2023-02-13T14:27:26.623Z,61.11
2023-02-13T14:29:07.107Z,61.92
2023-02-13T14:30:47.753Z,61.58
2023-02-13T14:32:28.167Z,60.98
2023-02-13T14:34:08.701Z,61.5
2023-02-13T14:35:49.132Z,61.09
2023-02-13T14:37:29.658Z,61.08
2023-02-13T14:39:10.100Z,60.98
2023-02-13T14:40:50.665Z,62.6
2023-02-13T14:42:31.087Z,62.63
2023-02-13T14:44:11.607Z,64.49
2023-02-13T14:45:52.161Z,64.58
2023-02-13T14:47:32.537Z,64.42
2023-02-13T14:49:12.973Z,65.27
2023-02-13T14:50:53.479Z,64.43
2023-02-13T14:52:34.016Z,64.05
2023-02-13T14:54:14.504Z,63.76
2023-02-13T14:55:55.032Z,64.96
2023-02-13T14:57:35.586Z,65.12
2023-02-13T14:59:16.090Z,64.02
2023-02-13T15:00:56.911Z,64.15
2023-02-13T15:02:37.039Z,63.21
2023-02-13T15:04:17.549Z,63.67
2023-02-13T15:05:57.845Z,63.84
2023-02-13T15:07:38.293Z,62.8
2023-02-13T15:09:18.756Z,63.1
2023-02-13T15:10:59.598Z,63.21
2023-02-13T15:12:39.696Z,64.18
2023-02-13T15:14:20.183Z,64.22
2023-02-13T15:16:00.736Z,63.17
2023-02-13T15:17:41.254Z,63.26
2023-02-13T15:19:21.674Z,64.25
2023-02-13T15:21:02.134Z,64.07
2023-02-13T15:22:42.657Z,63.46
2023-02-13T15:24:23.091Z,63.74
2023-02-13T15:26:03.490Z,63.44
2023-02-13T15:27:43.968Z,63.4
2023-02-13T15:29:31.101Z,63.88
2023-02-13T15:31:04.926Z,64.35
2023-02-13T15:32:45.294Z,64.83
2023-02-13T15:34:25.839Z,65.29
2023-02-13T15:36:06.350Z,65.55
2023-02-13T15:37:46.844Z,66.09
2023-02-13T15:39:27.346Z,66.71
2023-02-13T15:41:07.834Z,67.31
2023-02-13T15:42:48.277Z,68.45
2023-02-13T15:44:28.780Z,69.32
2023-02-13T15:46:09.121Z,69.9
2023-02-13T15:47:49.505Z,70.94
2023-02-13T15:49:29.928Z,71.8
2023-02-13T15:51:10.434Z,72.85
2023-02-13T15:52:50.953Z,73.67
2023-02-13T15:54:31.370Z,75
2023-02-13T15:56:11.942Z,75.19
2023-02-13T15:57:52.402Z,75.43
2023-02-13T15:59:32.858Z,76.59
2023-02-13T16:01:13.418Z,77.28
2023-02-13T16:02:53.986Z,77.62
2023-02-13T16:04:34.390Z,78.35
2023-02-13T16:06:14.849Z,78.9
2023-02-13T16:07:55.366Z,79.28
2023-02-13T16:09:35.818Z,79.9
2023-02-13T16:11:16.173Z,80.62
2023-02-13T16:12:56.532Z,80.96
2023-02-13T16:14:37.067Z,81.43
2023-02-13T16:16:17.554Z,81.78
2023-02-13T16:17:57.955Z,82.54
2023-02-13T16:19:38.403Z,83.02
2023-02-13T16:21:18.908Z,83.5
2023-02-13T16:22:59.417Z,83.81
2023-02-13T16:24:39.868Z,84.61
2023-02-13T16:26:23.395Z,84.75
2023-02-13T16:28:00.772Z,84.39
2023-02-13T16:29:41.242Z,84.84
2023-02-13T16:31:21.841Z,86.39
2023-02-13T16:33:02.162Z,86.53
2023-02-13T16:34:42.589Z,86.53
2023-02-13T16:36:23.007Z,87.2
2023-02-13T16:38:03.575Z,87.78
2023-02-13T16:39:43.922Z,88.31
2023-02-13T16:41:24.436Z,88.25
2023-02-13T16:43:04.893Z,87.83
2023-02-13T16:44:45.270Z,87.82
2023-02-13T16:46:25.788Z,88.65
2023-02-13T16:48:06.272Z,88.5
2023-02-13T16:49:46.740Z,88.74
2023-02-13T16:51:27.262Z,89.3
2023-02-13T16:53:07.732Z,89.43
2023-02-13T16:54:48.203Z,90.11
2023-02-13T16:56:28.694Z,90.28
2023-02-13T16:58:09.202Z,90.26
2023-02-13T16:59:49.686Z,89.92
2023-02-13T17:01:30.214Z,90.35
2023-02-13T17:03:10.625Z,91.09
2023-02-13T17:04:51.180Z,91.11
2023-02-13T17:06:31.608Z,91.14
2023-02-13T17:08:12.068Z,90.83
2023-02-13T17:09:52.609Z,91.03
2023-02-13T17:11:33.089Z,91.45
2023-02-13T17:13:13.707Z,91.11
2023-02-13T17:14:54.165Z,91.49
2023-02-13T17:16:34.774Z,91.63
2023-02-13T17:18:15.152Z,92.58
2023-02-13T17:20:01.575Z,92.97
2023-02-13T17:21:46.596Z,93.2
2023-02-13T17:23:27.009Z,92.64
2023-02-13T17:25:07.424Z,92.52
2023-02-13T17:26:47.898Z,92.55
2023-02-13T17:28:28.328Z,92.84
2023-02-13T17:30:08.906Z,92.83
2023-02-13T17:31:49.432Z,93.21
2023-02-13T17:33:29.662Z,93.46
2023-02-13T17:35:10.088Z,93.4
2023-02-13T17:36:53.493Z,93.95
2023-02-13T17:38:30.716Z,93.85
2023-02-13T17:40:11.021Z,94.29
2023-02-13T17:41:51.354Z,94.34
2023-02-13T17:43:31.884Z,94.54
2023-02-13T17:45:12.310Z,94.8
2023-02-13T17:46:52.808Z,94.65
2023-02-13T17:48:33.289Z,94.66
2023-02-13T17:50:13.762Z,94.58
2023-02-13T17:51:54.262Z,95.01
2023-02-13T17:53:34.758Z,95.5
2023-02-13T17:55:15.223Z,95.59
2023-02-13T17:56:55.710Z,95.46
2023-02-13T17:58:36.222Z,95.72
2023-02-13T18:00:16.609Z,95.62
2023-02-13T18:01:56.929Z,95.81
2023-02-13T18:03:37.441Z,95.94
2023-02-13T18:05:17.967Z,96.34
2023-02-13T18:06:58.340Z,96.32
2023-02-13T18:08:38.782Z,96.27
2023-02-13T18:10:19.299Z,96.17
2023-02-13T18:12:05.344Z,96.09
2023-02-13T18:13:40.304Z,95.96
2023-02-13T18:15:20.806Z,96.06
2023-02-13T18:17:01.289Z,95.83
2023-02-13T18:18:41.793Z,96
2023-02-13T18:20:22.214Z,96.16
2023-02-13T18:22:02.666Z,96.21
2023-02-13T18:23:43.113Z,96.78
2023-02-13T18:25:23.576Z,97.06
2023-02-13T18:27:03.947Z,97.27
2023-02-13T18:28:44.270Z,97.34
2023-02-13T18:30:24.640Z,97.29
2023-02-13T18:32:05.175Z,97.28
2023-02-13T18:33:45.576Z,97.27
2023-02-13T18:35:25.967Z,97.23
2023-02-13T18:37:06.493Z,97.29
2023-02-13T18:38:47.035Z,97.51
2023-02-13T18:40:27.509Z,97.75
2023-02-13T18:42:07.780Z,97.88
2023-02-13T18:43:48.384Z,98.12
2023-02-13T18:45:28.865Z,98.35
2023-02-13T18:47:09.289Z,98.48
2023-02-13T18:48:49.753Z,98.56
2023-02-13T18:50:30.189Z,98.46
2023-02-13T18:52:18.461Z,98.35
2023-02-13T18:53:58.996Z,98.31
2023-02-13T18:55:39.542Z,98.44
2023-02-13T18:57:19.882Z,98.54
2023-02-13T18:59:03.508Z,98.57
2023-02-13T19:00:40.975Z,98.62
2023-02-13T19:02:21.458Z,98.58
2023-02-13T19:04:01.928Z,98.59
2023-02-13T19:05:42.521Z,98.47
2023-02-13T19:07:22.929Z,98.41
2023-02-13T19:09:03.274Z,98.52
2023-02-13T19:10:43.776Z,98.41
2023-02-13T19:12:24.208Z,98.36
2023-02-13T19:14:04.631Z,98.65
2023-02-13T19:15:45.138Z,98.66
2023-02-13T19:17:25.595Z,98.66
2023-02-13T19:19:06.040Z,98.77
2023-02-13T19:20:46.487Z,98.88
2023-02-13T19:22:26.973Z,98.9
2023-02-13T19:24:07.621Z,98.94
2023-02-13T19:25:48.030Z,98.87
2023-02-13T19:27:28.505Z,98.81
2023-02-13T19:29:08.997Z,98.72
2023-02-13T19:30:49.490Z,98.74
2023-02-13T19:32:29.940Z,98.76
2023-02-13T19:34:10.389Z,98.67
2023-02-13T19:35:50.864Z,98.82
2023-02-13T19:37:43.037Z,98.96
2023-02-13T19:39:11.782Z,98.94
2023-02-13T19:40:52.065Z,99.06
2023-02-13T19:42:32.492Z,99.11
2023-02-13T19:44:12.878Z,99.24
2023-02-13T19:45:53.426Z,99.29
2023-02-13T19:47:36.925Z,99.27
2023-02-13T19:49:14.145Z,99.26
2023-02-13T19:50:54.443Z,99.23
2023-02-13T19:52:34.769Z,99.15
2023-02-13T19:54:15.072Z,99.07
2023-02-13T19:55:55.353Z,99.23
2023-02-13T19:57:35.682Z,99.25
2023-02-13T19:59:15.972Z,99.36
2023-02-13T20:00:56.642Z,99.47
2023-02-13T20:02:39.870Z,99.43
2023-02-13T20:04:17.096Z,99.49
2023-02-13T20:05:57.606Z,99.55
2023-02-13T20:07:38.135Z,99.44
2023-02-13T20:09:18.561Z,99.55
2023-02-13T20:10:59.494Z,99.62
2023-02-13T20:12:42.630Z,99.66
2023-02-13T20:14:20.068Z,99.63
2023-02-13T20:16:00.681Z,99.59
2023-02-13T20:17:41.069Z,99.55
2023-02-13T20:19:21.810Z,99.57
2023-02-13T20:21:02.066Z,99.65
2023-02-13T20:22:42.495Z,99.7
2023-02-13T20:24:22.967Z,99.72
2023-02-13T20:26:03.378Z,99.75
2023-02-13T20:27:43.872Z,99.77
2023-02-13T20:29:31.378Z,99.77
2023-02-13T20:31:05.079Z,99.84
2023-02-13T20:32:45.291Z,100
2023-02-13T20:34:25.896Z,100
2023-02-13T20:36:06.188Z,100
2023-02-13T20:37:46.694Z,100
2023-02-13T20:39:27.214Z,100
2023-02-13T20:41:07.526Z,100
2023-02-13T20:42:47.858Z,100
2023-02-13T20:44:28.176Z,100
2023-02-13T20:46:08.575Z,100
2023-02-13T20:47:48.891Z,100
2023-02-13T20:49:29.335Z,100
2023-02-13T20:51:09.838Z,100
2023-02-13T20:52:50.304Z,100
2023-02-13T20:54:30.847Z,100
2023-02-13T20:56:11.230Z,100
2023-02-13T20:57:51.815Z,100
2023-02-13T20:59:32.232Z,100
2023-02-13T21:01:12.785Z,100
2023-02-13T21:02:53.223Z,100
2023-02-13T21:04:33.772Z,100
2023-02-13T21:06:14.095Z,100
2023-02-13T21:07:54.372Z,100
2023-02-13T21:09:34.684Z,100
2023-02-13T21:11:15.069Z,100
2023-02-13T21:12:55.284Z,100
2023-02-13T21:14:35.665Z,100
2023-02-13T21:16:15.932Z,100
2023-02-13T21:17:56.174Z,100
2023-02-13T21:19:36.516Z,100
2023-02-13T21:21:16.808Z,100
2023-02-13T21:22:57.085Z,100
2023-02-13T21:24:37.411Z,100
2023-02-13T21:26:17.724Z,100
2023-02-13T21:27:57.984Z,100
2023-02-13T21:29:38.300Z,100
2023-02-13T21:31:18.703Z,100
2023-02-13T21:32:58.918Z,100
2023-02-13T21:34:39.208Z,100
2023-02-13T21:36:19.491Z,100
2023-02-13T21:37:59.813Z,100